createdAt,value
2022-12-31T00:00:57.250Z,99.99
2022-12-31T00:01:58.073Z,99.99
2022-12-31T00:02:57.508Z,99.99
2022-12-31T00:03:57.340Z,99.99
2022-12-31T00:04:56.541Z,99.99
2022-12-31T00:05:57.301Z,99.99
2022-12-31T00:06:57.891Z,99.99
2022-12-31T00:07:57.313Z,99.99
2022-12-31T00:08:57.588Z,99.99
2022-12-31T00:09:57.875Z,99.99
2022-12-31T00:10:57.271Z,99.99
2022-12-31T00:11:57.023Z,99.99
2022-12-31T00:12:58.052Z,99.99
2022-12-31T00:13:57.764Z,99.99
2022-12-31T00:14:57.295Z,99.99
2022-12-31T00:15:57.060Z,99.99
2022-12-31T00:16:57.914Z,99.99
2022-12-31T00:17:57.954Z,99.99
2022-12-31T00:18:57.301Z,99.99
2022-12-31T00:19:57.111Z,99.99
2022-12-31T00:20:57.277Z,99.99
2022-12-31T00:21:57.043Z,99.99
2022-12-31T00:22:57.140Z,99.99
2022-12-31T00:23:57.212Z,99.99
2022-12-31T00:24:57.189Z,99.99
2022-12-31T00:25:57.182Z,99.99
2022-12-31T00:26:57.150Z,99.99
2022-12-31T00:27:57.092Z,99.99
2022-12-31T00:28:56.916Z,99.99
2022-12-31T00:30:04.116Z,99.99
2022-12-31T00:30:56.973Z,99.99
2022-12-31T00:31:57.081Z,99.99
2022-12-31T00:32:56.900Z,99.99
2022-12-31T00:33:57.115Z,99.99
2022-12-31T00:34:56.245Z,99.99
2022-12-31T00:35:57.052Z,99.99
2022-12-31T00:36:56.920Z,99.99
2022-12-31T00:37:56.981Z,99.99
2022-12-31T00:38:56.867Z,99.99
2022-12-31T00:39:56.988Z,99.99
2022-12-31T00:40:57.162Z,99.99
2022-12-31T00:41:56.917Z,99.99
2022-12-31T00:42:56.960Z,99.99
2022-12-31T00:43:56.801Z,99.99
2022-12-31T00:44:56.870Z,99.99
2022-12-31T00:45:56.843Z,99.99
2022-12-31T00:46:56.992Z,99.99
2022-12-31T00:47:56.719Z,99.18
2022-12-31T00:48:57.030Z,99.28
2022-12-31T00:49:56.759Z,99.70
2022-12-31T00:50:57.200Z,99.70
2022-12-31T00:51:56.760Z,99.28
2022-12-31T00:52:56.841Z,98.97
2022-12-31T00:53:56.927Z,99.18
2022-12-31T00:54:56.859Z,99.76
2022-12-31T00:55:56.760Z,99.71
2022-12-31T00:56:56.900Z,98.99
2022-12-31T00:57:56.932Z,97.27
2022-12-31T00:58:56.548Z,97.89
2022-12-31T00:59:56.708Z,98.51
2022-12-31T01:00:56.618Z,98.72
2022-12-31T01:01:56.847Z,97.89
2022-12-31T01:02:56.834Z,97.99
2022-12-31T01:03:56.734Z,98.51
2022-12-31T01:04:56.631Z,98.45
2022-12-31T01:05:56.819Z,99.18
2022-12-31T01:06:56.669Z,99.24
2022-12-31T01:07:56.807Z,99.13
2022-12-31T01:08:56.548Z,99.13
2022-12-31T01:09:56.662Z,99.13
2022-12-31T01:10:56.571Z,98.61
2022-12-31T01:11:55.851Z,98.14
2022-12-31T01:12:55.841Z,99.18
2022-12-31T01:13:56.748Z,98.24
2022-12-31T01:14:56.602Z,98.29
2022-12-31T01:15:56.566Z,99.12
2022-12-31T01:16:56.607Z,99.80
2022-12-31T01:17:56.452Z,99.49
2022-12-31T01:18:56.629Z,99.28
2022-12-31T01:19:56.366Z,99.18
2022-12-31T01:20:56.621Z,99.49
2022-12-31T01:21:56.408Z,99.44
2022-12-31T01:22:56.519Z,99.55
2022-12-31T01:23:56.513Z,99.19
2022-12-31T01:24:56.659Z,97.43
2022-12-31T01:25:56.433Z,96.75
2022-12-31T01:26:56.489Z,96.95
2022-12-31T01:27:56.890Z,97.72
2022-12-31T01:28:56.546Z,98.24
2022-12-31T01:29:56.600Z,97.93
2022-12-31T01:30:56.371Z,98.35
2022-12-31T01:31:56.568Z,99.18
2022-12-31T01:32:56.295Z,98.66
2022-12-31T01:33:55.623Z,98.81
2022-12-31T01:34:56.332Z,99.49
2022-12-31T01:35:56.497Z,98.97
2022-12-31T01:36:56.219Z,99.18
2022-12-31T01:37:56.480Z,98.55
2022-12-31T01:38:55.559Z,98.71
2022-12-31T01:39:56.349Z,99.99
2022-12-31T01:40:56.287Z,99.99
2022-12-31T01:41:56.328Z,98.45
2022-12-31T01:42:56.282Z,98.81
2022-12-31T01:43:56.758Z,99.74
2022-12-31T01:44:56.303Z,99.74
2022-12-31T01:45:56.389Z,99.70
2022-12-31T01:46:56.209Z,99.99
2022-12-31T01:47:56.109Z,98.86
2022-12-31T01:48:56.259Z,99.18
2022-12-31T01:49:56.121Z,99.38
2022-12-31T01:50:56.950Z,99.07
2022-12-31T01:51:56.177Z,98.97
2022-12-31T01:52:56.250Z,98.55
2022-12-31T01:53:56.130Z,99.18
2022-12-31T01:54:56.230Z,99.59
2022-12-31T01:55:56.146Z,99.28
2022-12-31T01:56:56.229Z,99.18
2022-12-31T01:57:56.222Z,99.07
2022-12-31T01:58:56.240Z,99.03
2022-12-31T01:59:55.371Z,98.66
2022-12-31T02:00:56.318Z,98.76
2022-12-31T02:01:56.153Z,99.18
2022-12-31T02:02:55.454Z,99.24
2022-12-31T02:03:56.149Z,99.34
2022-12-31T02:04:55.923Z,98.93
2022-12-31T02:05:56.059Z,98.72
2022-12-31T02:06:56.104Z,99.03
2022-12-31T02:07:55.350Z,98.82
2022-12-31T02:08:55.921Z,98.20
2022-12-31T02:09:56.018Z,98.41
2022-12-31T02:10:55.249Z,98.61
2022-12-31T02:11:55.240Z,98.57
2022-12-31T02:12:56.002Z,97.78
2022-12-31T02:13:58.557Z,98.05
2022-12-31T02:14:55.891Z,97.95
2022-12-31T02:15:56.235Z,97.27
2022-12-31T02:16:55.233Z,98.05
2022-12-31T02:17:55.960Z,97.89
2022-12-31T02:18:55.940Z,97.99
2022-12-31T02:19:55.172Z,98.30
2022-12-31T02:20:55.968Z,98.51
2022-12-31T02:21:55.142Z,98.61
2022-12-31T02:22:56.021Z,98.41
2022-12-31T02:23:55.142Z,98.16
2022-12-31T02:24:55.110Z,97.95
2022-12-31T02:25:55.864Z,98.05
2022-12-31T02:26:55.985Z,98.05
2022-12-31T02:27:55.141Z,97.64
2022-12-31T02:28:55.907Z,97.33
2022-12-31T02:29:55.066Z,96.91
2022-12-31T02:30:55.962Z,97.27
2022-12-31T02:31:55.919Z,98.05
2022-12-31T02:32:55.847Z,97.68
2022-12-31T02:33:56.324Z,97.99
2022-12-31T02:34:55.657Z,97.78
2022-12-31T02:35:55.775Z,97.89
2022-12-31T02:36:55.690Z,98.30
2022-12-31T02:37:55.788Z,98.41
2022-12-31T02:38:55.642Z,98.72
2022-12-31T02:39:55.902Z,98.99
2022-12-31T02:40:55.740Z,98.51
2022-12-31T02:41:54.945Z,98.88
2022-12-31T02:42:56.356Z,98.57
2022-12-31T02:43:55.773Z,98.68
2022-12-31T02:44:54.900Z,98.26
2022-12-31T02:45:55.690Z,98.26
2022-12-31T02:46:55.651Z,98.68
2022-12-31T02:47:56.198Z,98.16
2022-12-31T02:48:54.900Z,98.68
2022-12-31T02:49:55.525Z,98.57
2022-12-31T02:50:56.565Z,98.88
2022-12-31T02:51:54.837Z,98.57
2022-12-31T02:52:56.282Z,98.26
2022-12-31T02:53:55.551Z,98.47
2022-12-31T02:54:55.775Z,98.32
2022-12-31T02:55:55.490Z,98.26
2022-12-31T02:56:55.610Z,98.32
2022-12-31T02:57:54.770Z,97.33
2022-12-31T02:58:55.562Z,97.43
2022-12-31T02:59:56.270Z,97.74
2022-12-31T03:00:55.795Z,97.85
2022-12-31T03:01:54.874Z,97.85
2022-12-31T03:02:55.729Z,97.74
2022-12-31T03:03:55.449Z,97.53
2022-12-31T03:04:54.752Z,97.33
2022-12-31T03:05:55.627Z,97.85
2022-12-31T03:06:55.242Z,98.36
2022-12-31T03:07:56.128Z,98.16
2022-12-31T03:08:55.382Z,98.05
2022-12-31T03:09:55.562Z,98.16
2022-12-31T03:10:55.279Z,98.26
2022-12-31T03:11:55.751Z,98.21
2022-12-31T03:12:55.304Z,98.00
2022-12-31T03:13:55.519Z,97.64
2022-12-31T03:14:54.647Z,97.64
2022-12-31T03:15:55.637Z,97.33
2022-12-31T03:16:55.302Z,96.60
2022-12-31T03:17:55.487Z,96.75
2022-12-31T03:18:54.558Z,97.47
2022-12-31T03:19:55.390Z,97.68
2022-12-31T03:20:55.523Z,97.89
2022-12-31T03:21:55.117Z,98.20
2022-12-31T03:22:55.257Z,97.99
2022-12-31T03:23:55.129Z,98.20
2022-12-31T03:24:55.266Z,98.41
2022-12-31T03:25:55.310Z,98.51
2022-12-31T03:26:55.371Z,98.41
2022-12-31T03:27:55.129Z,98.61
2022-12-31T03:28:54.481Z,98.47
2022-12-31T03:29:55.091Z,97.99
2022-12-31T03:30:54.512Z,97.99
2022-12-31T03:31:56.292Z,98.41
2022-12-31T03:32:55.280Z,98.57
2022-12-31T03:33:55.150Z,98.16
2022-12-31T03:34:54.400Z,98.16
2022-12-31T03:35:55.679Z,98.57
2022-12-31T03:36:55.080Z,98.47
2022-12-31T03:37:55.469Z,98.36
2022-12-31T03:38:54.969Z,97.43
2022-12-31T03:39:54.352Z,97.74
2022-12-31T03:40:56.009Z,98.26
2022-12-31T03:41:55.303Z,98.05
2022-12-31T03:42:55.064Z,97.74
2022-12-31T03:43:54.292Z,97.85
2022-12-31T03:44:54.334Z,97.53
2022-12-31T03:45:54.329Z,97.85
2022-12-31T03:46:55.149Z,98.16
2022-12-31T03:47:54.339Z,98.36
2022-12-31T03:48:54.953Z,98.26
2022-12-31T03:49:55.069Z,98.16
2022-12-31T03:50:54.949Z,98.36
2022-12-31T03:51:55.010Z,98.47
2022-12-31T03:52:55.048Z,98.57
2022-12-31T03:53:54.850Z,98.47
2022-12-31T03:54:55.080Z,97.95
2022-12-31T03:55:54.839Z,98.21
2022-12-31T03:56:59.884Z,98.42
2022-12-31T03:57:54.881Z,97.49
2022-12-31T03:58:55.084Z,97.17
2022-12-31T03:59:54.850Z,97.33
2022-12-31T04:00:55.532Z,97.85
2022-12-31T04:01:54.987Z,97.64
2022-12-31T04:02:55.533Z,97.53
2022-12-31T04:03:54.779Z,97.74
2022-12-31T04:04:55.491Z,98.32
2022-12-31T04:05:54.115Z,98.00
2022-12-31T04:06:54.617Z,98.00
2022-12-31T04:07:54.111Z,98.11
2022-12-31T04:08:54.050Z,98.00
2022-12-31T04:09:54.772Z,97.69
2022-12-31T04:10:54.054Z,97.59
2022-12-31T04:11:54.841Z,97.75
2022-12-31T04:12:54.031Z,97.44
2022-12-31T04:13:54.850Z,97.65
2022-12-31T04:14:54.746Z,96.92
2022-12-31T04:15:54.729Z,96.09
2022-12-31T04:16:54.770Z,96.41
2022-12-31T04:17:54.819Z,96.82
2022-12-31T04:18:54.714Z,96.82
2022-12-31T04:19:54.713Z,96.82
2022-12-31T04:20:54.780Z,96.55
2022-12-31T04:21:54.710Z,96.55
2022-12-31T04:22:54.679Z,97.17
2022-12-31T04:23:55.279Z,96.86
2022-12-31T04:24:55.231Z,96.66
2022-12-31T04:25:54.637Z,96.45
2022-12-31T04:26:53.880Z,96.45
2022-12-31T04:27:54.516Z,96.66
2022-12-31T04:28:54.769Z,96.91
2022-12-31T04:29:53.852Z,97.07
2022-12-31T04:30:56.640Z,96.60
2022-12-31T04:31:55.183Z,96.81
2022-12-31T04:32:53.825Z,97.33
2022-12-31T04:33:55.549Z,97.64
2022-12-31T04:34:54.368Z,97.33
2022-12-31T04:35:54.483Z,97.22
2022-12-31T04:36:54.560Z,97.12
2022-12-31T04:37:55.161Z,96.81
2022-12-31T04:38:54.551Z,97.27
2022-12-31T04:39:53.819Z,98.05
2022-12-31T04:40:54.313Z,97.43
2022-12-31T04:41:53.722Z,97.49
2022-12-31T04:42:54.341Z,97.49
2022-12-31T04:43:54.486Z,97.59
2022-12-31T04:44:54.367Z,97.69
2022-12-31T04:45:54.613Z,97.69
2022-12-31T04:46:53.671Z,96.97
2022-12-31T04:47:55.000Z,96.55
2022-12-31T04:48:54.422Z,96.66
2022-12-31T04:49:54.484Z,96.76
2022-12-31T04:50:54.281Z,96.66
2022-12-31T04:51:53.622Z,96.55
2022-12-31T04:52:54.323Z,96.86
2022-12-31T04:53:53.603Z,97.38
2022-12-31T04:54:54.407Z,97.59
2022-12-31T04:55:53.601Z,97.59
2022-12-31T04:56:54.443Z,97.28
2022-12-31T04:57:54.311Z,97.07
2022-12-31T04:58:53.585Z,97.28
2022-12-31T04:59:54.247Z,96.97
2022-12-31T05:00:54.376Z,97.38
2022-12-31T05:01:53.734Z,97.38
2022-12-31T05:02:53.595Z,97.07
2022-12-31T05:03:54.320Z,97.49
2022-12-31T05:04:53.561Z,97.59
2022-12-31T05:05:54.293Z,97.49
2022-12-31T05:06:53.471Z,97.34
2022-12-31T05:07:54.173Z,97.34
2022-12-31T05:08:54.353Z,96.41
2022-12-31T05:09:55.007Z,96.41
2022-12-31T05:10:53.471Z,96.24
2022-12-31T05:11:54.243Z,96.55
2022-12-31T05:12:53.455Z,96.97
2022-12-31T05:13:54.241Z,96.97
2022-12-31T05:14:54.788Z,96.86
2022-12-31T05:15:54.314Z,97.07
2022-12-31T05:16:54.188Z,97.17
2022-12-31T05:17:54.794Z,96.97
2022-12-31T05:18:54.131Z,97.24
2022-12-31T05:19:54.270Z,97.13
2022-12-31T05:20:54.019Z,96.82
2022-12-31T05:21:54.220Z,96.76
2022-12-31T05:22:54.021Z,96.66
2022-12-31T05:23:54.093Z,97.49
2022-12-31T05:24:54.041Z,97.34
2022-12-31T05:25:53.292Z,96.97
2022-12-31T05:26:54.131Z,97.17
2022-12-31T05:27:54.787Z,97.17
2022-12-31T05:28:53.993Z,97.59
2022-12-31T05:29:53.281Z,97.69
2022-12-31T05:30:54.056Z,96.97
2022-12-31T05:31:53.983Z,96.86
2022-12-31T05:32:54.602Z,97.38
2022-12-31T05:33:54.510Z,97.55
2022-12-31T05:34:54.538Z,97.86
2022-12-31T05:35:53.880Z,97.86
2022-12-31T05:36:54.164Z,97.24
2022-12-31T05:37:53.943Z,96.86
2022-12-31T05:38:53.934Z,97.75
2022-12-31T05:39:53.855Z,97.65
2022-12-31T05:40:54.441Z,97.65
2022-12-31T05:41:53.924Z,98.07
2022-12-31T05:42:54.701Z,98.38
2022-12-31T05:43:54.401Z,98.12
2022-12-31T05:44:53.772Z,97.50
2022-12-31T05:45:53.138Z,96.82
2022-12-31T05:46:53.808Z,96.92
2022-12-31T05:47:54.250Z,97.03
2022-12-31T05:48:53.659Z,97.03
2022-12-31T05:49:53.961Z,96.98
2022-12-31T05:50:53.802Z,97.29
2022-12-31T05:51:54.459Z,96.88
2022-12-31T05:52:53.685Z,96.98
2022-12-31T05:53:53.932Z,97.50
2022-12-31T05:54:53.690Z,97.60
2022-12-31T05:55:52.996Z,96.57
2022-12-31T05:56:53.741Z,96.88
2022-12-31T05:57:52.980Z,96.98
2022-12-31T05:58:53.772Z,96.47
2022-12-31T05:59:53.560Z,96.78
2022-12-31T06:00:54.422Z,96.67
2022-12-31T06:01:54.269Z,96.41
2022-12-31T06:02:53.789Z,96.92
2022-12-31T06:03:53.791Z,97.09
2022-12-31T06:04:52.911Z,96.67
2022-12-31T06:05:53.645Z,96.67
2022-12-31T06:06:52.863Z,96.88
2022-12-31T06:07:53.521Z,96.98
2022-12-31T06:08:53.960Z,96.94
2022-12-31T06:09:52.904Z,97.14
2022-12-31T06:10:53.701Z,97.14
2022-12-31T06:11:53.638Z,96.21
2022-12-31T06:12:53.665Z,95.64
2022-12-31T06:13:53.524Z,96.01
2022-12-31T06:14:54.361Z,96.31
2022-12-31T06:15:53.726Z,96.31
2022-12-31T06:16:53.495Z,96.42
2022-12-31T06:17:54.120Z,96.31
2022-12-31T06:18:53.021Z,95.64
2022-12-31T06:19:53.581Z,96.15
2022-12-31T06:20:54.264Z,96.36
2022-12-31T06:21:53.675Z,96.94
2022-12-31T06:22:52.728Z,97.35
2022-12-31T06:23:53.510Z,96.42
2022-12-31T06:24:54.397Z,95.28
2022-12-31T06:25:53.550Z,95.90
2022-12-31T06:26:54.131Z,96.42
2022-12-31T06:27:52.673Z,96.42
2022-12-31T06:28:53.383Z,95.59
2022-12-31T06:29:54.245Z,95.28
2022-12-31T06:30:52.751Z,96.11
2022-12-31T06:31:53.344Z,95.39
2022-12-31T06:32:53.330Z,95.90
2022-12-31T06:33:53.250Z,96.94
2022-12-31T06:34:53.474Z,96.01
2022-12-31T06:35:54.371Z,95.90
2022-12-31T06:36:53.511Z,95.59
2022-12-31T06:37:53.180Z,95.80
2022-12-31T06:38:53.331Z,96.73
2022-12-31T06:39:54.291Z,96.94
2022-12-31T06:40:53.596Z,96.21
2022-12-31T06:41:53.882Z,96.01
2022-12-31T06:42:59.529Z,96.27
2022-12-31T06:43:53.883Z,95.70
2022-12-31T06:44:53.302Z,96.17
2022-12-31T06:45:53.959Z,96.58
2022-12-31T06:46:53.503Z,96.17
2022-12-31T06:47:54.172Z,96.17
2022-12-31T06:48:53.203Z,95.34
2022-12-31T06:49:53.241Z,95.54
2022-12-31T06:50:53.982Z,95.34
2022-12-31T06:51:53.375Z,95.75
2022-12-31T06:52:53.050Z,95.34
2022-12-31T06:53:53.285Z,96.37
2022-12-31T06:54:53.140Z,96.48
2022-12-31T06:55:53.121Z,95.75
2022-12-31T06:56:53.114Z,96.06
2022-12-31T06:57:53.166Z,96.23
2022-12-31T06:58:53.102Z,96.23
2022-12-31T06:59:53.209Z,95.61
2022-12-31T07:00:53.010Z,95.81
2022-12-31T07:01:52.452Z,96.02
2022-12-31T07:02:53.867Z,95.81
2022-12-31T07:03:52.922Z,95.65
2022-12-31T07:04:53.672Z,95.44
2022-12-31T07:05:52.298Z,95.86
2022-12-31T07:06:52.306Z,96.48
2022-12-31T07:07:53.001Z,96.02
2022-12-31T07:08:52.237Z,96.33
2022-12-31T07:09:53.002Z,95.75
2022-12-31T07:10:52.212Z,95.86
2022-12-31T07:11:53.032Z,96.17
2022-12-31T07:12:53.751Z,95.86
2022-12-31T07:13:52.962Z,95.96
2022-12-31T07:14:53.948Z,96.17
2022-12-31T07:15:53.003Z,96.37
2022-12-31T07:16:52.961Z,96.58
2022-12-31T07:17:53.991Z,96.79
2022-12-31T07:18:53.821Z,96.42
2022-12-31T07:19:57.524Z,96.73
2022-12-31T07:20:53.114Z,97.14
2022-12-31T07:21:52.109Z,97.45
2022-12-31T07:22:52.907Z,97.14
2022-12-31T07:23:54.872Z,97.83
2022-12-31T07:24:53.495Z,98.34
2022-12-31T07:25:53.631Z,97.83
2022-12-31T07:26:56.773Z,97.52
2022-12-31T07:27:53.148Z,96.95
2022-12-31T07:28:52.796Z,97.26
2022-12-31T07:29:52.879Z,96.54
2022-12-31T07:30:52.911Z,96.12
2022-12-31T07:31:52.017Z,96.54
2022-12-31T07:32:51.989Z,97.06
2022-12-31T07:33:52.750Z,97.16
2022-12-31T07:34:52.820Z,96.64
2022-12-31T07:35:51.960Z,96.95
2022-12-31T07:36:52.728Z,96.80
2022-12-31T07:37:53.611Z,96.70
2022-12-31T07:38:51.939Z,96.29
2022-12-31T07:39:52.752Z,96.45
2022-12-31T07:40:51.921Z,95.77
2022-12-31T07:41:52.568Z,95.36
2022-12-31T07:42:53.376Z,95.67
2022-12-31T07:43:52.601Z,95.98
2022-12-31T07:44:52.815Z,95.46
2022-12-31T07:45:52.682Z,95.56
2022-12-31T07:46:51.874Z,95.81
2022-12-31T07:47:51.839Z,96.33
2022-12-31T07:48:53.740Z,96.12
2022-12-31T07:49:52.561Z,96.19
2022-12-31T07:50:52.503Z,96.29
2022-12-31T07:51:52.543Z,96.08
2022-12-31T07:52:52.450Z,95.77
2022-12-31T07:53:51.791Z,95.67
2022-12-31T07:54:52.512Z,96.08
2022-12-31T07:55:52.591Z,96.03
2022-12-31T07:56:52.534Z,95.21
2022-12-31T07:57:52.574Z,95.10
2022-12-31T07:58:52.548Z,94.75
2022-12-31T07:59:52.562Z,93.93
2022-12-31T08:00:51.764Z,93.24
2022-12-31T08:01:53.298Z,93.76
2022-12-31T08:02:52.828Z,94.38
2022-12-31T08:03:52.611Z,94.34
2022-12-31T08:04:52.386Z,93.82
2022-12-31T08:05:52.232Z,93.88
2022-12-31T08:06:52.502Z,93.53
2022-12-31T08:07:52.350Z,92.80
2022-12-31T08:08:51.656Z,91.36
2022-12-31T08:09:52.302Z,91.77
2022-12-31T08:10:52.472Z,91.16
2022-12-31T08:11:51.633Z,91.42
2022-12-31T08:12:51.607Z,91.22
2022-12-31T08:13:52.359Z,90.76
2022-12-31T08:14:51.588Z,90.28
2022-12-31T08:15:52.429Z,90.55
2022-12-31T08:16:52.341Z,90.14
2022-12-31T08:17:51.605Z,88.80
2022-12-31T08:18:52.441Z,90.25
2022-12-31T08:19:52.341Z,90.72
2022-12-31T08:20:51.510Z,89.48
2022-12-31T08:21:52.228Z,90.26
2022-12-31T08:22:51.556Z,87.73
2022-12-31T08:23:52.351Z,89.77
2022-12-31T08:24:51.441Z,91.01
2022-12-31T08:25:53.401Z,91.11
2022-12-31T08:26:53.354Z,90.76
2022-12-31T08:27:52.322Z,91.64
2022-12-31T08:28:52.161Z,90.92
2022-12-31T08:29:52.221Z,89.85
2022-12-31T08:30:51.413Z,89.23
2022-12-31T08:31:52.311Z,88.51
2022-12-31T08:32:51.372Z,89.23
2022-12-31T08:33:52.282Z,90.43
2022-12-31T08:34:52.255Z,88.23
2022-12-31T08:35:52.249Z,88.18
2022-12-31T08:36:52.070Z,87.52
2022-12-31T08:37:51.346Z,87.59
2022-12-31T08:38:52.271Z,86.25
2022-12-31T08:39:51.903Z,85.28
2022-12-31T08:40:52.129Z,84.94
2022-12-31T08:41:51.351Z,82.99
2022-12-31T08:42:51.762Z,83.23
2022-12-31T08:43:51.969Z,82.71
2022-12-31T08:44:51.377Z,82.71
2022-12-31T08:45:52.027Z,84.53
2022-12-31T08:46:52.194Z,85.25
2022-12-31T08:47:56.475Z,82.95
2022-12-31T08:48:52.589Z,82.54
2022-12-31T08:49:52.462Z,83.15
2022-12-31T08:50:52.047Z,82.68
2022-12-31T08:51:51.901Z,83.67
2022-12-31T08:52:51.839Z,84.49
2022-12-31T08:53:52.263Z,82.57
2022-12-31T08:54:51.981Z,84.32
2022-12-31T08:55:51.191Z,84.39
2022-12-31T08:56:52.490Z,83.73
2022-12-31T08:57:51.932Z,82.09
2022-12-31T08:58:51.849Z,83.69
2022-12-31T08:59:51.990Z,82.15
2022-12-31T09:00:51.922Z,82.73
2022-12-31T09:01:51.214Z,80.78
2022-12-31T09:02:51.751Z,82.93
2022-12-31T09:03:51.957Z,80.64
2022-12-31T09:04:52.750Z,79.00
2022-12-31T09:05:51.922Z,80.33
2022-12-31T09:06:52.072Z,80.85
2022-12-31T09:07:51.842Z,81.63
2022-12-31T09:08:51.926Z,81.46
2022-12-31T09:09:51.008Z,81.84
2022-12-31T09:10:51.881Z,81.12
2022-12-31T09:11:51.750Z,80.60
2022-12-31T09:12:51.781Z,80.30
2022-12-31T09:13:51.020Z,80.13
2022-12-31T09:14:51.853Z,80.17
2022-12-31T09:15:51.823Z,81.71
2022-12-31T09:16:51.834Z,79.58
2022-12-31T09:17:51.743Z,77.91
2022-12-31T09:18:50.901Z,79.16
2022-12-31T09:19:51.659Z,77.70
2022-12-31T09:20:51.695Z,75.41
2022-12-31T09:21:50.931Z,76.36
2022-12-31T09:22:52.745Z,72.86
2022-12-31T09:23:51.917Z,72.41
2022-12-31T09:24:52.125Z,71.70
2022-12-31T09:25:51.504Z,72.41
2022-12-31T09:26:52.301Z,67.50
2022-12-31T09:27:51.783Z,67.16
2022-12-31T09:28:52.212Z,67.43
2022-12-31T09:29:51.202Z,69.63
2022-12-31T09:30:52.296Z,72.08
2022-12-31T09:31:50.877Z,72.04
2022-12-31T09:32:55.339Z,73.10
2022-12-31T09:33:51.798Z,75.44
2022-12-31T09:34:51.481Z,74.66
2022-12-31T09:35:51.568Z,75.71
2022-12-31T09:36:51.589Z,76.43
2022-12-31T09:37:52.279Z,75.62
2022-12-31T09:38:50.722Z,75.71
2022-12-31T09:39:51.569Z,74.52
2022-12-31T09:40:51.570Z,79.16
2022-12-31T09:41:51.325Z,78.72
2022-12-31T09:42:50.726Z,77.97
2022-12-31T09:43:57.365Z,79.71
2022-12-31T09:44:52.211Z,80.33
2022-12-31T09:45:51.686Z,80.60
2022-12-31T09:46:51.423Z,76.78
2022-12-31T09:47:51.689Z,77.83
2022-12-31T09:48:51.020Z,78.75
2022-12-31T09:49:52.161Z,79.27
2022-12-31T09:50:51.500Z,78.41
2022-12-31T09:51:51.320Z,77.22
2022-12-31T09:52:51.371Z,79.33
2022-12-31T09:53:51.362Z,76.67
2022-12-31T09:54:50.582Z,76.47
2022-12-31T09:55:51.388Z,76.81
2022-12-31T09:56:57.108Z,77.59
2022-12-31T09:57:51.991Z,76.20
2022-12-31T09:58:50.502Z,77.42
2022-12-31T09:59:51.387Z,78.08
2022-12-31T10:00:51.200Z,78.31
2022-12-31T10:01:51.497Z,79.17
2022-12-31T10:02:50.572Z,79.99
2022-12-31T10:03:51.252Z,79.89
2022-12-31T10:04:52.165Z,80.51
2022-12-31T10:05:50.446Z,81.45
2022-12-31T10:06:51.299Z,79.00
2022-12-31T10:07:53.415Z,79.17
2022-12-31T10:08:50.400Z,80.99
2022-12-31T10:09:51.324Z,81.67
2022-12-31T10:10:50.457Z,80.23
2022-12-31T10:11:51.594Z,79.93
2022-12-31T10:12:51.182Z,80.19
2022-12-31T10:13:52.060Z,78.59
2022-12-31T10:14:51.139Z,76.71
2022-12-31T10:15:50.386Z,76.61
2022-12-31T10:16:50.338Z,77.42
2022-12-31T10:17:50.341Z,76.57
2022-12-31T10:18:51.093Z,78.08
2022-12-31T10:19:50.310Z,80.64
2022-12-31T10:20:50.314Z,81.20
2022-12-31T10:21:51.045Z,80.19
2022-12-31T10:22:51.171Z,78.45
2022-12-31T10:23:51.942Z,79.54
2022-12-31T10:24:51.141Z,76.71
2022-12-31T10:25:50.223Z,77.42
2022-12-31T10:26:53.382Z,78.20
2022-12-31T10:27:51.002Z,77.49
2022-12-31T10:28:51.174Z,77.80
2022-12-31T10:29:50.189Z,77.49
2022-12-31T10:30:50.950Z,76.81
2022-12-31T10:31:50.171Z,75.99
2022-12-31T10:32:50.710Z,74.42
2022-12-31T10:33:50.131Z,74.22
2022-12-31T10:34:50.804Z,76.19
2022-12-31T10:35:50.923Z,75.68
2022-12-31T10:36:50.869Z,75.85
2022-12-31T10:37:51.042Z,74.22
2022-12-31T10:38:50.858Z,75.58
2022-12-31T10:39:50.971Z,76.84
2022-12-31T10:40:50.947Z,77.59
2022-12-31T10:41:50.932Z,78.52
2022-12-31T10:42:50.106Z,78.38
2022-12-31T10:43:50.752Z,77.45
2022-12-31T10:44:50.803Z,74.55
2022-12-31T10:45:50.805Z,73.57
2022-12-31T10:46:50.913Z,75.82
2022-12-31T10:47:50.022Z,74.08
2022-12-31T10:48:50.232Z,77.31
2022-12-31T10:49:51.214Z,74.35
2022-12-31T10:50:50.245Z,76.32
2022-12-31T10:51:51.111Z,73.36
2022-12-31T10:52:50.764Z,73.16
2022-12-31T10:53:49.962Z,73.40
2022-12-31T10:54:50.795Z,74.05
2022-12-31T10:55:49.940Z,72.82
2022-12-31T10:56:50.741Z,73.94
2022-12-31T10:57:50.671Z,72.82
2022-12-31T10:58:50.696Z,75.24
2022-12-31T10:59:51.562Z,76.53
2022-12-31T11:00:49.870Z,75.75
2022-12-31T11:01:50.825Z,76.81
2022-12-31T11:02:50.644Z,77.52
2022-12-31T11:03:51.346Z,77.42
2022-12-31T11:04:50.630Z,77.83
2022-12-31T11:05:51.532Z,76.90
2022-12-31T11:06:50.483Z,77.56
2022-12-31T11:07:49.812Z,77.42
2022-12-31T11:08:50.504Z,78.69
2022-12-31T11:09:50.717Z,79.61
2022-12-31T11:10:50.619Z,80.02
2022-12-31T11:11:50.540Z,79.00
2022-12-31T11:12:50.525Z,79.61
2022-12-31T11:13:50.551Z,80.16
2022-12-31T11:14:49.740Z,80.16
2022-12-31T11:15:50.305Z,80.36
2022-12-31T11:16:50.390Z,79.85
2022-12-31T11:17:49.690Z,80.98
2022-12-31T11:18:50.516Z,80.63
2022-12-31T11:19:51.152Z,81.45
2022-12-31T11:20:50.514Z,79.96
2022-12-31T11:21:50.410Z,80.43
2022-12-31T11:22:50.411Z,82.37
2022-12-31T11:23:50.375Z,80.02
2022-12-31T11:24:50.485Z,80.43
2022-12-31T11:25:50.363Z,80.33
2022-12-31T11:26:50.510Z,79.54
2022-12-31T11:27:49.742Z,80.09
2022-12-31T11:28:49.923Z,82.31
2022-12-31T11:29:50.389Z,82.10
2022-12-31T11:30:50.247Z,82.21
2022-12-31T11:31:50.430Z,81.38
2022-12-31T11:32:50.300Z,81.49
2022-12-31T11:33:50.770Z,81.70
2022-12-31T11:34:50.321Z,81.65
2022-12-31T11:35:49.523Z,80.46
2022-12-31T11:36:50.201Z,82.21
2022-12-31T11:37:50.366Z,80.77
2022-12-31T11:38:50.270Z,81.70
2022-12-31T11:39:50.386Z,81.70
2022-12-31T11:40:50.572Z,82.82
2022-12-31T11:41:50.553Z,81.49
2022-12-31T11:42:50.762Z,81.49
2022-12-31T11:43:50.490Z,81.38
2022-12-31T11:44:50.283Z,81.18
2022-12-31T11:45:50.783Z,82.31
2022-12-31T11:46:50.267Z,82.92
2022-12-31T11:48:28.528Z,81.59
2022-12-31T11:48:50.750Z,83.13
2022-12-31T11:49:50.163Z,80.67
2022-12-31T11:50:50.243Z,80.91
2022-12-31T11:51:50.881Z,82.51
2022-12-31T11:52:50.141Z,82.14
2022-12-31T11:53:50.139Z,82.24
2022-12-31T11:54:50.340Z,83.17
2022-12-31T11:55:50.232Z,82.76
2022-12-31T11:56:50.253Z,82.76
2022-12-31T11:57:50.077Z,83.37
2022-12-31T11:58:49.282Z,82.86
2022-12-31T11:59:50.304Z,82.76
2022-12-31T12:00:49.300Z,82.55
2022-12-31T12:01:50.071Z,82.55
2022-12-31T12:02:49.929Z,82.49
2022-12-31T12:03:50.246Z,82.79
2022-12-31T12:04:49.941Z,82.69
2022-12-31T12:05:50.267Z,83.20
2022-12-31T12:06:49.849Z,82.69
2022-12-31T12:07:50.013Z,83.55
2022-12-31T12:08:50.031Z,83.31
2022-12-31T12:09:50.045Z,84.37
2022-12-31T12:10:49.929Z,84.47
2022-12-31T12:11:49.970Z,84.64
2022-12-31T12:12:49.900Z,83.55
2022-12-31T12:13:49.122Z,84.88
2022-12-31T12:14:49.900Z,85.39
2022-12-31T12:15:49.811Z,84.06
2022-12-31T12:16:49.111Z,83.61
2022-12-31T12:17:49.710Z,83.51
2022-12-31T12:18:49.083Z,84.12
2022-12-31T12:19:49.697Z,83.92
2022-12-31T12:20:49.889Z,83.92
2022-12-31T12:21:49.733Z,84.23
2022-12-31T12:22:49.951Z,84.84
2022-12-31T12:23:49.722Z,84.95
2022-12-31T12:24:49.840Z,83.72
2022-12-31T12:25:49.713Z,84.03
2022-12-31T12:26:49.822Z,84.37
2022-12-31T12:27:49.727Z,84.68
2022-12-31T12:28:49.750Z,85.30
2022-12-31T12:29:49.731Z,85.09
2022-12-31T12:30:50.161Z,84.99
2022-12-31T12:31:50.055Z,84.12
2022-12-31T12:32:50.991Z,84.23
2022-12-31T12:33:49.870Z,84.03
2022-12-31T12:34:50.442Z,82.65
2022-12-31T12:35:49.774Z,82.55
2022-12-31T12:36:49.601Z,82.55
2022-12-31T12:37:50.049Z,83.06
2022-12-31T12:38:49.624Z,83.37
2022-12-31T12:39:49.681Z,83.33
2022-12-31T12:40:49.821Z,82.76
2022-12-31T12:41:50.021Z,83.17
2022-12-31T12:42:49.604Z,83.37
2022-12-31T12:43:49.826Z,83.47
2022-12-31T12:44:49.531Z,83.68
2022-12-31T12:45:52.419Z,83.47
2022-12-31T12:46:49.595Z,83.58
2022-12-31T12:47:49.600Z,83.58
2022-12-31T12:48:49.558Z,83.47
2022-12-31T12:49:49.482Z,83.44
2022-12-31T12:50:49.593Z,83.84
2022-12-31T12:51:49.401Z,83.84
2022-12-31T12:52:49.510Z,83.95